Airfield :
LOGIN :

Register | Disclaimer

   EN    FR    IT 

 










Legend :    VFR   Marginal VFR   IFR   Intensive IFR   Very Intensive IFR
Visi :
Ceiling :
>= 8 km
>= 3000ft
5 to 8 km
1000 to 3000 ft
1500m to 5 km
500 to 1000 ft
800 to 1500m
200 to 500 ft
< 800m
< 200 ft
Symbols :   Thunderstorms  Fog  Heavy snow  Heavy precipitations  Wind > 20 kt
SIGMETs :     Misc.  Thunderstorms  Icing  Turbulence  Mountain Waves  Volcanic Ashes







- Airport Elevation : 505 ft
- IATA code : SXB
- Download approach charts


LFST - Strasbourg

CURRENT METAR :
  • 220600Z AUTO 19010KT 9999 FEW024 OVC032 08/07 Q1010 NOSIG

EXPIRED METARs :
  • 220530Z AUTO 18010KT 9999 FEW019 OVC030 07/06 Q1010 NOSIG
  • 220500Z AUTO 17010KT 9999 BKN029 BKN034 BKN041 07/06 Q1010 TEMPO 4000 RA BKN008
  • 220430Z AUTO 17011KT 9999 FEW017 BKN029 OVC034 06/05 Q1010 TEMPO 4000 RA BKN008
  • 220400Z AUTO 17011KT 9999 FEW004 BKN030 OVC035 05/05 Q1010 TEMPO 2500 RADZ BKN003
  • 220330Z AUTO 19008KT 160V220 9000 BKN005 BKN015 OVC030 05/04 Q1010 TEMPO 2500 RADZ

TAF TAF LFST
Valid from the 22 at 06:00 until the 23 at 06:00 UTC


220500Z 2206/2306 18010KT 9999 BKN030 OVC050
TEMPO 2211/2215 4000 RA BKN008
TEMPO 2215/2218 -RA
BECMG 2217/2218 32010KT
BECMG 2300/2303 23005KT
No reported NOTAMs for that airfield.



MET'MAP, your aeronautical weather chart ! - Copyright ORBIFLY December 2007 - Disclaimer

ORBIFLY MET'MAP TEAM :

Programming & Development : Alexandra Zaïnal
Concept & Development : Baudouin d'Aumeries
Co-Development & Prog : Marc-Olivier Méhu
Technical & hardware support : Manuel Goepfert

Contact : metmap@orbifly.com




SOURCES & CREDITS :

   NOAA